Time;durP1;ratioP1;P1;durP2;ratioP2;P2;SDS_P1;SDS_P2;PMS_P1;PMS_P2;Temp;Humidity;BMP_temperature;BMP_pressure;BME280_temperature;BME280_humidity;BME280_pressure;Samples;Min_cycle;Max_cycle;Signal;HPM_P1;HPM_P2
2022/09/07 00:01:59;;;;;;;;;;;17.40;99.90;;;;;;5107678;28;19916;-80
2022/09/07 00:04:25;;;;;;;;;;;17.40;99.90;;;;;;5105613;28;19938;-80
2022/09/07 00:06:50;;;;;;;;;;;17.40;99.90;;;;;;5108683;28;19919;-79
2022/09/07 00:09:16;;;;;;;;;;;17.40;99.90;;;;;;5108856;28;19962;-77
2022/09/07 00:11:41;;;;;;;;;;;17.40;99.90;;;;;;5111471;28;19915;-87
2022/09/07 00:14:07;;;;;;;;;;;17.30;99.90;;;;;;5109745;28;19961;-84
2022/09/07 00:16:33;;;;;;;;;;;17.30;99.90;;;;;;5110129;28;20346;-78
2022/09/07 00:19:00;;;;;;;;;;;17.20;99.90;;;;;;5091087;28;19924;-83
2022/09/07 00:21:26;;;;;;;;;;;17.20;99.90;;;;;;5112511;28;20260;-79
2022/09/07 00:23:52;;;;;;;;;;;17.00;99.90;;;;;;5109354;28;19912;-79
2022/09/07 00:26:19;;;;;;;;;;;17.00;99.90;;;;;;5109907;28;20000;-80
2022/09/07 00:28:44;;;;;;;;;;;16.90;99.90;;;;;;5092581;28;20310;-79
2022/09/07 00:31:12;;;;;;;;;;;16.80;99.90;;;;;;5092282;28;19922;-81
2022/09/07 00:33:38;;;;;;;;;;;16.90;99.90;;;;;;5100468;28;20053;-82
2022/09/07 00:36:03;;;;;;;;;;;17.00;99.90;;;;;;5089764;28;20007;-81
2022/09/07 00:38:29;;;;;;;;;;;17.00;99.90;;;;;;5090147;28;19986;-86
2022/09/07 00:40:54;;;;;;;;;;;16.90;99.90;;;;;;5093010;28;19915;-83
2022/09/07 00:43:31;;;;;;;;;;;16.80;99.90;;;;;;5105532;28;20367;-77
2022/09/07 00:45:56;;;;;;;;;;;16.80;99.90;;;;;;5110666;28;19911;-80
2022/09/07 00:48:24;;;;;;;;;;;16.80;99.90;;;;;;5112442;28;19916;-79
2022/09/07 00:50:52;;;;;;;;;;;16.80;99.90;;;;;;5109428;28;19915;-76
2022/09/07 00:53:24;;;;;;;;;;;16.90;99.90;;;;;;5112131;28;20203;-79
2022/09/07 00:55:50;;;;;;;;;;;16.80;99.90;;;;;;5108440;28;19916;-80
2022/09/07 00:58:17;;;;;;;;;;;16.70;99.90;;;;;;5089099;28;20224;-79
2022/09/07 01:00:44;;;;;;;;;;;16.70;99.90;;;;;;5112544;28;19969;-79
2022/09/07 01:03:10;;;;;;;;;;;16.70;99.90;;;;;;5106123;28;20291;-80
2022/09/07 01:05:42;;;;;;;;;;;16.70;99.90;;;;;;5090324;28;19916;-82
2022/09/07 01:08:08;;;;;;;;;;;16.70;99.90;;;;;;5106045;28;19931;-76
2022/09/07 01:10:34;;;;;;;;;;;16.70;99.90;;;;;;5090151;28;20352;-85
2022/09/07 01:13:00;;;;;;;;;;;16.70;99.90;;;;;;5091657;28;19915;-78
2022/09/07 01:15:35;;;;;;;;;;;16.70;99.90;;;;;;5103426;28;19912;-79
2022/09/07 01:18:05;;;;;;;;;;;16.80;99.90;;;;;;5090504;28;19920;-78
2022/09/07 01:20:43;;;;;;;;;;;16.80;99.90;;;;;;5106717;28;19955;-79
2022/09/07 01:23:09;;;;;;;;;;;16.80;99.90;;;;;;5113753;28;20011;-78
2022/09/07 01:26:01;;;;;;;;;;;16.80;99.90;;;;;;5110290;28;20023;-78
2022/09/07 01:28:28;;;;;;;;;;;16.90;99.90;;;;;;5110381;28;20496;-79
2022/09/07 01:31:12;;;;;;;;;;;16.90;99.90;;;;;;5111471;28;19919;-80
2022/09/07 01:33:59;;;;;;;;;;;16.90;99.90;;;;;;5113551;28;19947;-80
2022/09/07 01:36:47;;;;;;;;;;;16.90;99.90;;;;;;5112543;28;19908;-80
2022/09/07 01:39:13;;;;;;;;;;;17.00;99.90;;;;;;5112953;28;19919;-78
2022/09/07 01:41:41;;;;;;;;;;;17.00;99.90;;;;;;5108492;28;20475;-77
2022/09/07 01:44:16;;;;;;;;;;;17.00;99.90;;;;;;5086508;28;19935;-78
2022/09/07 01:46:50;;;;;;;;;;;17.00;99.90;;;;;;5106285;28;19938;-78
2022/09/07 01:49:24;;;;;;;;;;;17.00;99.90;;;;;;5113213;28;19919;-77
2022/09/07 01:51:53;;;;;;;;;;;17.00;99.90;;;;;;5087216;28;20014;-78
2022/09/07 01:54:42;;;;;;;;;;;17.00;99.90;;;;;;5090104;28;19919;-77
2022/09/07 01:57:10;;;;;;;;;;;17.10;99.90;;;;;;5059546;28;19927;-77
2022/09/07 01:59:44;;;;;;;;;;;17.10;99.90;;;;;;5108711;28;20031;-77
2022/09/07 02:02:12;;;;;;;;;;;17.00;99.90;;;;;;5092292;28;20207;-77
2022/09/07 02:04:54;;;;;;;;;;;17.10;99.90;;;;;;5112089;28;20207;-78
2022/09/07 02:07:29;;;;;;;;;;;17.20;99.90;;;;;;5090712;28;20412;-76
2022/09/07 02:10:00;;;;;;;;;;;17.20;99.90;;;;;;5111830;28;20378;-79
2022/09/07 02:12:39;;;;;;;;;;;17.20;99.90;;;;;;5108865;28;19908;-78
2022/09/07 02:15:09;;;;;;;;;;;17.20;99.90;;;;;;5111866;28;20318;-77
2022/09/07 02:17:37;;;;;;;;;;;17.30;99.90;;;;;;5111604;28;19920;-76
2022/09/07 02:20:08;;;;;;;;;;;17.30;99.90;;;;;;5111512;28;20253;-77
2022/09/07 02:22:37;;;;;;;;;;;17.30;99.90;;;;;;5114693;28;19961;-78
2022/09/07 02:25:05;;;;;;;;;;;17.30;99.90;;;;;;5096872;28;19937;-77
2022/09/07 02:27:41;;;;;;;;;;;17.30;99.90;;;;;;5108569;28;19927;-77
2022/09/07 02:30:07;;;;;;;;;;;17.30;99.90;;;;;;5111429;28;19919;-78
2022/09/07 02:32:32;;;;;;;;;;;17.30;99.90;;;;;;5091456;28;19911;-75
2022/09/07 02:34:58;;;;;;;;;;;17.30;99.90;;;;;;5096259;28;20207;-77
2022/09/07 02:37:26;;;;;;;;;;;17.30;99.90;;;;;;5108550;28;19995;-75
2022/09/07 02:39:51;;;;;;;;;;;17.40;99.90;;;;;;5107531;28;19955;-78
2022/09/07 02:42:17;;;;;;;;;;;17.40;99.90;;;;;;5114180;28;21376;-77
2022/09/07 02:44:45;;;;;;;;;;;17.40;99.90;;;;;;5113566;28;19912;-78
2022/09/07 02:47:19;;;;;;;;;;;17.40;99.90;;;;;;5105591;28;19916;-77
2022/09/07 02:49:48;;;;;;;;;;;17.40;99.90;;;;;;5111322;28;19912;-78
2022/09/07 02:52:16;;;;;;;;;;;17.40;99.90;;;;;;5113839;28;20322;-78
2022/09/07 02:54:53;;;;;;;;;;;17.40;99.90;;;;;;5095776;28;20042;-77
2022/09/07 02:57:19;;;;;;;;;;;17.40;99.90;;;;;;5101093;28;20347;-77
2022/09/07 02:59:51;;;;;;;;;;;17.30;99.90;;;;;;5106019;28;19927;-78
2022/09/07 03:02:36;;;;;;;;;;;17.30;99.90;;;;;;5114433;28;19911;-79
2022/09/07 03:05:04;;;;;;;;;;;17.30;99.90;;;;;;5110679;28;19916;-76
2022/09/07 03:07:42;;;;;;;;;;;17.30;99.90;;;;;;5091016;28;19912;-76
2022/09/07 03:10:08;;;;;;;;;;;17.20;99.90;;;;;;5094035;28;20390;-76
2022/09/07 03:12:38;;;;;;;;;;;17.20;99.90;;;;;;5113031;28;19908;-79
2022/09/07 03:15:04;;;;;;;;;;;17.10;99.90;;;;;;5110840;28;20347;-77
2022/09/07 03:17:29;;;;;;;;;;;17.20;99.90;;;;;;5110700;28;19923;-76
2022/09/07 03:19:55;;;;;;;;;;;17.20;99.90;;;;;;5102378;28;19965;-78
2022/09/07 03:22:21;;;;;;;;;;;17.10;99.90;;;;;;5110278;28;19933;-78
2022/09/07 03:24:46;;;;;;;;;;;17.10;99.90;;;;;;5112393;28;20226;-78
2022/09/07 03:27:12;;;;;;;;;;;17.00;99.90;;;;;;5106642;28;20334;-78
2022/09/07 03:29:37;;;;;;;;;;;16.90;99.90;;;;;;5089514;28;19922;-77
2022/09/07 03:32:03;;;;;;;;;;;16.90;99.90;;;;;;5106390;28;19943;-76
2022/09/07 03:34:28;;;;;;;;;;;16.80;99.90;;;;;;5108287;28;19965;-76
2022/09/07 03:36:54;;;;;;;;;;;16.70;99.90;;;;;;5086401;28;20367;-76
2022/09/07 03:39:22;;;;;;;;;;;16.50;99.90;;;;;;5106420;28;19957;-76
2022/09/07 03:41:48;;;;;;;;;;;16.40;99.90;;;;;;5106134;28;19919;-76
2022/09/07 03:44:13;;;;;;;;;;;16.40;99.90;;;;;;5106871;28;20367;-78
2022/09/07 03:46:39;;;;;;;;;;;16.40;99.90;;;;;;5085395;28;20302;-79
2022/09/07 03:49:05;;;;;;;;;;;16.40;99.90;;;;;;5105809;28;19912;-76
2022/09/07 03:51:30;;;;;;;;;;;16.40;99.90;;;;;;5105429;28;19959;-77
2022/09/07 03:53:56;;;;;;;;;;;16.30;99.90;;;;;;5107163;28;19914;-77
2022/09/07 03:56:24;;;;;;;;;;;16.30;99.90;;;;;;5107065;28;19920;-78
2022/09/07 03:58:51;;;;;;;;;;;16.30;99.90;;;;;;5090532;28;20207;-76
2022/09/07 04:01:21;;;;;;;;;;;16.10;99.90;;;;;;5107166;28;19920;-78
2022/09/07 04:03:47;;;;;;;;;;;16.10;99.90;;;;;;5105969;28;19915;-77
2022/09/07 04:06:13;;;;;;;;;;;16.10;99.90;;;;;;5105925;28;19951;-75
2022/09/07 04:08:39;;;;;;;;;;;16.00;99.90;;;;;;5109463;28;19919;-78
2022/09/07 04:11:05;;;;;;;;;;;16.10;99.90;;;;;;5105536;28;19943;-78
2022/09/07 04:13:33;;;;;;;;;;;16.10;99.90;;;;;;5106117;28;19927;-74
2022/09/07 04:15:58;;;;;;;;;;;16.10;99.90;;;;;;5087311;28;19965;-78
2022/09/07 04:18:24;;;;;;;;;;;16.00;99.90;;;;;;5104769;28;19927;-75
2022/09/07 04:20:50;;;;;;;;;;;15.90;99.90;;;;;;5107749;28;19998;-76
2022/09/07 04:23:18;;;;;;;;;;;16.00;99.90;;;;;;5107500;28;20299;-78
2022/09/07 04:25:51;;;;;;;;;;;16.00;99.90;;;;;;5106441;28;20002;-79
2022/09/07 04:28:18;;;;;;;;;;;16.00;99.90;;;;;;5108146;28;19982;-78
2022/09/07 04:30:43;;;;;;;;;;;16.10;99.90;;;;;;5107006;28;19912;-78
2022/09/07 04:33:09;;;;;;;;;;;16.10;99.90;;;;;;5094002;28;19915;-78
2022/09/07 04:35:35;;;;;;;;;;;16.00;99.90;;;;;;5095591;28;19943;-77
2022/09/07 04:38:01;;;;;;;;;;;16.00;99.90;;;;;;5087881;28;19912;-76
2022/09/07 04:40:26;;;;;;;;;;;16.00;99.90;;;;;;5110261;28;20212;-77
2022/09/07 04:42:52;;;;;;;;;;;16.00;99.90;;;;;;5107209;28;20315;-76
2022/09/07 04:45:17;;;;;;;;;;;15.90;99.90;;;;;;5102928;28;19920;-77
2022/09/07 04:47:49;;;;;;;;;;;15.90;99.90;;;;;;5114332;28;19912;-76
2022/09/07 04:50:15;;;;;;;;;;;15.90;99.90;;;;;;5108896;28;19919;-78
2022/09/07 04:52:44;;;;;;;;;;;15.80;99.90;;;;;;5093631;28;20298;-77
2022/09/07 04:55:11;;;;;;;;;;;15.80;99.90;;;;;;5105469;28;19946;-77
2022/09/07 04:57:36;;;;;;;;;;;15.80;99.90;;;;;;5099917;28;20390;-76
2022/09/07 05:00:03;;;;;;;;;;;15.70;99.90;;;;;;5116685;28;19916;-76
2022/09/07 05:02:28;;;;;;;;;;;15.60;99.90;;;;;;5100555;28;19968;-76
2022/09/07 05:04:54;;;;;;;;;;;15.60;99.90;;;;;;5104538;28;20006;-75
2022/09/07 05:07:19;;;;;;;;;;;15.60;99.90;;;;;;5110368;28;19923;-75
2022/09/07 05:09:45;;;;;;;;;;;15.60;99.90;;;;;;5104813;28;19916;-75
2022/09/07 05:12:11;;;;;;;;;;;15.60;99.90;;;;;;5080260;28;19912;-74
2022/09/07 05:14:36;;;;;;;;;;;15.50;99.90;;;;;;5103670;28;20218;-75
2022/09/07 05:17:03;;;;;;;;;;;15.60;99.90;;;;;;5114068;28;20019;-74
2022/09/07 05:19:29;;;;;;;;;;;15.60;99.90;;;;;;5103228;28;19911;-75
2022/09/07 05:21:55;;;;;;;;;;;15.50;99.90;;;;;;5105766;28;20565;-75
2022/09/07 05:24:21;;;;;;;;;;;15.50;99.90;;;;;;5110839;28;19934;-75
2022/09/07 05:26:46;;;;;;;;;;;15.50;99.90;;;;;;5110069;28;20016;-75
2022/09/07 05:29:12;;;;;;;;;;;15.50;99.90;;;;;;5112525;28;19970;-75
2022/09/07 05:31:37;;;;;;;;;;;15.50;99.90;;;;;;5105563;28;19927;-75
2022/09/07 05:34:03;;;;;;;;;;;15.50;99.90;;;;;;5095410;28;20010;-75
2022/09/07 05:36:29;;;;;;;;;;;15.40;99.90;;;;;;5091826;28;20688;-75
2022/09/07 05:38:55;;;;;;;;;;;15.50;99.90;;;;;;5108433;28;19919;-75
2022/09/07 05:41:22;;;;;;;;;;;15.40;99.90;;;;;;5092878;28;20252;-75
2022/09/07 05:43:47;;;;;;;;;;;15.40;99.90;;;;;;5093065;28;19926;-75
2022/09/07 05:46:14;;;;;;;;;;;15.40;99.90;;;;;;5104542;28;20019;-75
2022/09/07 05:48:40;;;;;;;;;;;15.40;99.90;;;;;;5087748;28;20003;-75
2022/09/07 05:51:06;;;;;;;;;;;15.50;99.90;;;;;;5095945;28;20370;-75
2022/09/07 05:53:35;;;;;;;;;;;15.50;99.90;;;;;;5096364;28;20231;-75
2022/09/07 05:56:01;;;;;;;;;;;15.60;99.90;;;;;;5103418;28;19908;-76
2022/09/07 05:58:27;;;;;;;;;;;15.60;99.90;;;;;;5104597;28;19983;-75
2022/09/07 06:00:56;;;;;;;;;;;15.60;99.90;;;;;;5077896;28;19916;-75
2022/09/07 06:03:23;;;;;;;;;;;15.60;99.90;;;;;;5096535;28;20191;-75
2022/09/07 06:05:58;;;;;;;;;;;15.60;99.90;;;;;;5089276;28;19989;-75
2022/09/07 06:08:23;;;;;;;;;;;15.70;99.90;;;;;;5089683;28;19958;-74
2022/09/07 06:10:49;;;;;;;;;;;15.70;99.90;;;;;;5100130;28;19946;-75
2022/09/07 06:13:14;;;;;;;;;;;15.70;99.90;;;;;;5102177;28;20042;-75
2022/09/07 06:15:40;;;;;;;;;;;15.80;99.90;;;;;;5101740;28;19915;-75
2022/09/07 06:18:06;;;;;;;;;;;15.90;99.90;;;;;;5103238;28;19920;-75
2022/09/07 06:20:32;;;;;;;;;;;16.00;99.90;;;;;;5096081;28;20019;-75
2022/09/07 06:22:58;;;;;;;;;;;16.10;99.90;;;;;;5103828;28;20049;-75
2022/09/07 06:25:23;;;;;;;;;;;16.20;99.90;;;;;;5111109;28;20077;-75
2022/09/07 06:27:49;;;;;;;;;;;16.30;99.90;;;;;;5097200;28;19912;-75
2022/09/07 06:30:14;;;;;;;;;;;16.40;99.90;;;;;;5107136;28;19922;-75
2022/09/07 06:32:40;;;;;;;;;;;16.40;99.90;;;;;;5106900;28;19998;-75
2022/09/07 06:35:05;;;;;;;;;;;16.50;99.90;;;;;;5112048;28;19938;-75
2022/09/07 06:37:31;;;;;;;;;;;16.50;99.90;;;;;;5107651;28;19915;-74
2022/09/07 06:39:57;;;;;;;;;;;16.60;99.90;;;;;;5095038;28;19938;-74
2022/09/07 06:42:22;;;;;;;;;;;16.60;99.90;;;;;;5110657;28;19974;-75
2022/09/07 06:44:48;;;;;;;;;;;16.70;99.90;;;;;;5109346;28;19912;-74
2022/09/07 06:47:13;;;;;;;;;;;16.80;99.90;;;;;;5107755;28;19911;-75
2022/09/07 06:49:39;;;;;;;;;;;17.00;99.90;;;;;;5103662;28;20330;-75
2022/09/07 06:52:04;;;;;;;;;;;17.10;99.90;;;;;;5107573;28;19911;-75
2022/09/07 06:54:30;;;;;;;;;;;17.10;99.90;;;;;;5108425;28;19930;-75
2022/09/07 06:56:55;;;;;;;;;;;17.10;99.90;;;;;;5109698;28;19962;-75
2022/09/07 06:59:21;;;;;;;;;;;17.10;99.90;;;;;;5109373;28;19939;-75
2022/09/07 07:01:46;;;;;;;;;;;17.10;99.90;;;;;;5095935;28;19914;-75
2022/09/07 07:04:12;;;;;;;;;;;17.10;99.90;;;;;;5098656;28;19911;-75
2022/09/07 07:06:38;;;;;;;;;;;17.20;99.90;;;;;;5094970;28;19912;-75
2022/09/07 07:09:04;;;;;;;;;;;17.20;99.90;;;;;;5080269;28;19919;-75
2022/09/07 07:11:30;;;;;;;;;;;17.30;99.90;;;;;;5077429;28;19951;-75
2022/09/07 07:13:56;;;;;;;;;;;17.30;99.90;;;;;;5080254;28;20595;-77
2022/09/07 07:16:22;;;;;;;;;;;17.50;99.90;;;;;;5098531;28;20218;-76
2022/09/07 07:18:51;;;;;;;;;;;17.60;99.90;;;;;;5097345;28;19931;-76
2022/09/07 07:21:17;;;;;;;;;;;17.80;99.90;;;;;;5096297;28;19912;-75
2022/09/07 07:23:43;;;;;;;;;;;17.90;99.90;;;;;;5095931;28;19912;-79
2022/09/07 07:26:16;;;;;;;;;;;18.00;99.90;;;;;;5105841;28;20431;-83
2022/09/07 07:28:43;;;;;;;;;;;18.10;99.90;;;;;;5075898;28;19935;-83
2022/09/07 07:31:09;;;;;;;;;;;18.20;99.90;;;;;;5091728;28;20317;-81
2022/09/07 07:33:35;;;;;;;;;;;18.50;99.90;;;;;;5105881;28;20187;-81
2022/09/07 07:36:10;;;;;;;;;;;18.60;99.90;;;;;;5095191;28;19915;-76
2022/09/07 07:38:36;;;;;;;;;;;18.70;99.90;;;;;;5108169;28;20006;-79
2022/09/07 07:41:02;;;;;;;;;;;18.90;99.90;;;;;;5111869;28;20033;-78
2022/09/07 07:43:27;;;;;;;;;;;18.90;99.90;;;;;;5094989;28;20211;-78
2022/09/07 07:45:54;;;;;;;;;;;19.00;99.90;;;;;;5105327;28;19919;-75
2022/09/07 07:48:20;;;;;;;;;;;19.10;99.90;;;;;;5107271;28;20248;-76
2022/09/07 07:50:55;;;;;;;;;;;19.30;99.90;;;;;;5107788;28;19969;-75
2022/09/07 07:53:21;;;;;;;;;;;19.40;99.90;;;;;;5112728;28;20014;-76
2022/09/07 07:55:46;;;;;;;;;;;19.60;99.90;;;;;;5113796;28;20353;-77
2022/09/07 07:58:12;;;;;;;;;;;19.70;99.90;;;;;;5110640;28;19912;-75
2022/09/07 08:00:37;;;;;;;;;;;19.80;99.90;;;;;;5107738;28;19923;-76
2022/09/07 08:03:03;;;;;;;;;;;19.90;99.90;;;;;;5105097;28;19930;-75
2022/09/07 08:05:29;;;;;;;;;;;19.80;99.90;;;;;;5100400;28;19938;-76
2022/09/07 08:07:54;;;;;;;;;;;20.00;99.90;;;;;;5100940;28;19908;-76
2022/09/07 08:10:21;;;;;;;;;;;19.90;99.90;;;;;;5108905;28;19920;-77
2022/09/07 08:12:46;;;;;;;;;;;19.90;99.90;;;;;;5078438;28;19990;-78
2022/09/07 08:15:12;;;;;;;;;;;19.80;99.90;;;;;;5077809;28;20303;-78
2022/09/07 08:17:37;;;;;;;;;;;20.00;99.90;;;;;;5112674;27;19946;-78
2022/09/07 08:20:03;;;;;;;;;;;20.10;99.90;;;;;;5093064;28;19966;-78
2022/09/07 08:22:29;;;;;;;;;;;20.30;99.90;;;;;;5106214;28;19965;-79
2022/09/07 08:24:54;;;;;;;;;;;20.30;99.90;;;;;;5107204;28;20081;-80
2022/09/07 08:27:20;;;;;;;;;;;20.30;99.90;;;;;;5106079;28;19916;-78
2022/09/07 08:29:45;;;;;;;;;;;20.40;99.90;;;;;;5115278;28;20206;-79
2022/09/07 08:32:11;;;;;;;;;;;20.50;99.90;;;;;;5095772;28;20276;-77
2022/09/07 08:34:36;;;;;;;;;;;20.60;99.90;;;;;;5100953;28;19919;-78
2022/09/07 08:37:02;;;;;;;;;;;20.60;99.90;;;;;;5085547;28;19916;-76
2022/09/07 08:39:28;;;;;;;;;;;20.80;99.90;;;;;;5092031;28;19915;-75
2022/09/07 08:41:59;;;;;;;;;;;20.60;99.90;;;;;;5105387;28;19918;-78
2022/09/07 08:44:30;;;;;;;;;;;20.60;99.90;;;;;;5104919;28;20337;-79
2022/09/07 08:47:06;;;;;;;;;;;20.60;99.90;;;;;;5105178;28;20032;-79
2022/09/07 08:49:37;;;;;;;;;;;20.80;99.90;;;;;;5104999;28;20048;-77
2022/09/07 08:52:07;;;;;;;;;;;21.00;99.90;;;;;;5094262;28;19923;-78
2022/09/07 08:54:33;;;;;;;;;;;21.30;99.90;;;;;;5106138;28;19935;-78
2022/09/07 08:57:01;;;;;;;;;;;21.70;99.90;;;;;;5089842;28;20302;-79
2022/09/07 08:59:29;;;;;;;;;;;22.10;99.90;;;;;;5103693;28;20423;-78
2022/09/07 09:01:55;;;;;;;;;;;22.50;99.90;;;;;;5102918;28;19911;-77
2022/09/07 09:04:20;;;;;;;;;;;22.60;99.90;;;;;;5088187;28;19934;-77
2022/09/07 09:06:51;;;;;;;;;;;22.80;99.90;;;;;;5103035;28;19912;-77
2022/09/07 09:09:35;;;;;;;;;;;23.10;99.90;;;;;;5092629;28;19908;-78
2022/09/07 09:12:01;;;;;;;;;;;23.30;99.90;;;;;;5104247;28;20331;-77
2022/09/07 09:14:35;;;;;;;;;;;23.60;99.90;;;;;;5092987;28;20042;-79
2022/09/07 09:17:17;;;;;;;;;;;23.70;99.90;;;;;;5093563;28;20331;-78
2022/09/07 09:19:54;;;;;;;;;;;23.60;99.90;;;;;;5100552;28;19920;-79
2022/09/07 09:22:22;;;;;;;;;;;23.80;99.90;;;;;;5090863;28;20008;-76
2022/09/07 09:24:48;;;;;;;;;;;24.30;99.90;;;;;;5088397;28;19923;-77
2022/09/07 09:27:14;;;;;;;;;;;24.60;99.90;;;;;;5082044;28;19916;-75
2022/09/07 09:29:40;;;;;;;;;;;24.50;99.90;;;;;;5104676;28;19915;-76
2022/09/07 09:32:24;;;;;;;;;;;24.40;99.90;;;;;;5105325;28;19931;-78
2022/09/07 09:35:17;;;;;;;;;;;24.60;99.90;;;;;;5104342;28;19981;-78
2022/09/07 09:37:43;;;;;;;;;;;24.80;99.90;;;;;;5028870;28;19920;-78
2022/09/07 09:40:29;;;;;;;;;;;24.90;99.90;;;;;;5029581;28;19932;-78
2022/09/07 09:43:17;;;;;;;;;;;24.80;99.90;;;;;;5012501;28;19913;-78
2022/09/07 09:45:43;;;;;;;;;;;25.10;99.90;;;;;;5011168;28;19928;-76
2022/09/07 09:48:10;;;;;;;;;;;25.20;99.90;;;;;;5033179;28;20012;-76
2022/09/07 09:50:37;;;;;;;;;;;25.20;99.90;;;;;;5019682;28;19936;-78
2022/09/07 09:53:04;;;;;;;;;;;25.30;99.90;;;;;;5017976;28;19917;-77
2022/09/07 09:55:34;;;;;;;;;;;25.10;99.90;;;;;;5033061;28;19935;-76
2022/09/07 09:58:01;;;;;;;;;;;24.90;99.90;;;;;;5033150;28;19917;-77
2022/09/07 10:00:28;;;;;;;;;;;24.80;99.90;;;;;;5016862;28;19913;-76
2022/09/07 10:02:58;;;;;;;;;;;25.00;99.90;;;;;;5021584;28;19948;-78
2022/09/07 10:05:27;;;;;;;;;;;25.00;99.90;;;;;;5032581;28;20015;-76
2022/09/07 10:07:53;;;;;;;;;;;25.30;99.90;;;;;;5015971;28;19972;-76
2022/09/07 10:10:18;;;;;;;;;;;25.40;99.90;;;;;;5031406;28;19971;-76
2022/09/07 10:12:45;;;;;;;;;;;25.20;99.90;;;;;;5032115;28;19909;-76
2022/09/07 10:15:24;;;;;;;;;;;25.10;99.90;;;;;;5074350;28;19916;-76
2022/09/07 10:17:50;;;;;;;;;;;24.90;99.90;;;;;;5083863;28;19931;-78
2022/09/07 10:20:16;;;;;;;;;;;24.90;99.90;;;;;;5088739;28;20033;-76
2022/09/07 10:22:42;;;;;;;;;;;25.20;99.90;;;;;;5085638;28;20646;-76
2022/09/07 10:25:26;;;;;;;;;;;25.40;99.90;;;;;;5105433;28;19911;-76
2022/09/07 10:28:04;;;;;;;;;;;25.60;99.90;;;;;;5081927;28;19912;-76
2022/09/07 10:30:36;;;;;;;;;;;25.50;99.90;;;;;;5097600;28;19923;-76
2022/09/07 10:33:06;;;;;;;;;;;25.50;99.90;;;;;;5082770;28;19912;-77
2022/09/07 10:35:44;;;;;;;;;;;25.60;99.90;;;;;;5087540;28;19999;-76
2022/09/07 10:38:21;;;;;;;;;;;25.70;99.90;;;;;;5099743;28;19920;-74
2022/09/07 10:41:00;;;;;;;;;;;25.80;99.90;;;;;;5095374;28;20398;-76
2022/09/07 10:43:29;;;;;;;;;;;25.60;99.90;;;;;;5078685;28;20314;-77
2022/09/07 10:46:00;;;;;;;;;;;25.80;99.90;;;;;;5102626;28;20319;-75
2022/09/07 10:48:25;;;;;;;;;;;25.90;99.90;;;;;;5100123;28;20195;-75
2022/09/07 10:50:58;;;;;;;;;;;26.00;99.90;;;;;;5083683;28;19965;-76
2022/09/07 10:53:24;;;;;;;;;;;25.70;99.90;;;;;;5103509;28;19915;-77
2022/09/07 10:55:52;;;;;;;;;;;25.40;99.90;;;;;;5101049;28;19912;-74
2022/09/07 10:58:30;;;;;;;;;;;25.10;99.90;;;;;;5085076;28;19920;-74
2022/09/07 11:01:14;;;;;;;;;;;25.00;99.90;;;;;;5101275;28;19914;-75
2022/09/07 11:04:06;;;;;;;;;;;24.80;99.90;;;;;;5107130;28;19916;-75
2022/09/07 11:06:43;;;;;;;;;;;25.00;99.90;;;;;;5082785;28;20306;-75
2022/09/07 11:09:26;;;;;;;;;;;25.20;99.90;;;;;;5099994;28;20318;-75
2022/09/07 11:11:55;;;;;;;;;;;25.30;99.90;;;;;;5083697;28;19962;-76
2022/09/07 11:14:23;;;;;;;;;;;25.20;99.90;;;;;;5082207;28;19912;-76
2022/09/07 11:16:54;;;;;;;;;;;25.10;99.90;;;;;;5104173;28;20409;-76
2022/09/07 11:19:26;;;;;;;;;;;24.90;99.90;;;;;;5098719;28;19985;-75
2022/09/07 11:22:03;;;;;;;;;;;24.90;99.90;;;;;;5080169;28;20249;-74
2022/09/07 11:24:49;;;;;;;;;;;25.10;99.90;;;;;;5100375;28;19919;-75
2022/09/07 11:27:22;;;;;;;;;;;25.20;99.90;;;;;;5097961;28;19912;-76
2022/09/07 11:29:51;;;;;;;;;;;25.20;99.90;;;;;;5094765;28;19916;-75
2022/09/07 11:32:19;;;;;;;;;;;25.20;99.90;;;;;;5080052;28;19937;-75
2022/09/07 11:34:50;;;;;;;;;;;25.40;99.90;;;;;;5095661;28;20014;-75
2022/09/07 11:37:27;;;;;;;;;;;25.30;99.90;;;;;;5096490;28;19912;-75
2022/09/07 11:39:56;;;;;;;;;;;25.20;99.90;;;;;;5081935;28;20018;-75
2022/09/07 11:42:41;;;;;;;;;;;25.20;99.90;;;;;;5104113;28;19945;-74
2022/09/07 11:45:25;;;;;;;;;;;25.00;99.90;;;;;;5105389;28;19911;-73
2022/09/07 11:47:58;;;;;;;;;;;24.90;99.90;;;;;;5107020;28;19920;-73
2022/09/07 11:50:25;;;;;;;;;;;24.60;99.90;;;;;;5107424;28;19937;-74
2022/09/07 11:52:53;;;;;;;;;;;24.30;99.90;;;;;;5086590;28;20272;-74
2022/09/07 11:55:24;;;;;;;;;;;24.40;99.90;;;;;;5099769;28;20013;-75
2022/09/07 11:58:08;;;;;;;;;;;24.50;99.90;;;;;;5092497;28;19972;-74
2022/09/07 12:00:40;;;;;;;;;;;24.60;99.90;;;;;;5079741;28;19986;-74
2022/09/07 12:03:09;;;;;;;;;;;24.40;99.90;;;;;;5084395;28;20258;-74
2022/09/07 12:05:34;;;;;;;;;;;24.40;99.90;;;;;;5085334;28;19908;-74
2022/09/07 12:08:00;;;;;;;;;;;24.60;99.90;;;;;;5095647;28;19912;-77
2022/09/07 12:10:49;;;;;;;;;;;24.80;99.90;;;;;;5079647;28;20023;-73
2022/09/07 12:13:36;;;;;;;;;;;25.00;99.90;;;;;;5095407;28;19958;-80
2022/09/07 12:16:21;;;;;;;;;;;25.20;99.90;;;;;;5094168;28;19931;-75
2022/09/07 12:19:05;;;;;;;;;;;25.40;99.90;;;;;;5082503;28;19926;-74
2022/09/07 12:21:41;;;;;;;;;;;25.60;99.90;;;;;;5095521;28;19927;-75
2022/09/07 12:24:25;;;;;;;;;;;25.70;99.90;;;;;;5098706;28;19943;-74
2022/09/07 12:26:51;;;;;;;;;;;25.70;99.90;;;;;;5096033;28;19937;-74
2022/09/07 12:29:18;;;;;;;;;;;25.60;99.90;;;;;;5096795;28;19986;-80
2022/09/07 12:31:44;;;;;;;;;;;25.40;99.90;;;;;;5096570;28;19916;-76
2022/09/07 12:34:28;;;;;;;;;;;25.30;99.90;;;;;;5095260;28;20321;-76
2022/09/07 12:36:54;;;;;;;;;;;25.30;99.90;;;;;;5093559;28;19912;-75
2022/09/07 12:39:24;;;;;;;;;;;25.40;99.90;;;;;;5095699;28;19912;-76
2022/09/07 12:42:09;;;;;;;;;;;25.60;99.90;;;;;;5081789;28;19919;-75
2022/09/07 12:44:36;;;;;;;;;;;25.70;99.90;;;;;;5101491;28;20001;-75
2022/09/07 12:47:11;;;;;;;;;;;25.80;99.90;;;;;;5092137;28;19908;-77
2022/09/07 12:49:42;;;;;;;;;;;25.90;99.90;;;;;;5104931;28;19909;-80
2022/09/07 12:52:08;;;;;;;;;;;26.00;99.90;;;;;;5102275;28;19942;-74
2022/09/07 12:54:56;;;;;;;;;;;26.00;99.90;;;;;;5095881;28;20315;-74
2022/09/07 12:57:27;;;;;;;;;;;26.10;99.90;;;;;;5101116;28;19916;-74
2022/09/07 12:59:53;;;;;;;;;;;26.10;99.90;;;;;;5075862;28;19916;-73
2022/09/07 13:02:30;;;;;;;;;;;26.10;99.90;;;;;;5107690;28;20268;-73
2022/09/07 13:04:58;;;;;;;;;;;26.00;99.90;;;;;;5100445;28;19931;-73
2022/09/07 13:07:36;;;;;;;;;;;25.90;99.90;;;;;;5105064;28;19999;-73
2022/09/07 13:10:04;;;;;;;;;;;25.80;99.90;;;;;;5102294;28;19919;-74
2022/09/07 13:12:34;;;;;;;;;;;25.80;99.90;;;;;;5101847;28;19916;-74
2022/09/07 13:15:00;;;;;;;;;;;25.80;99.80;;;;;;5100215;28;19908;-74
2022/09/07 13:17:25;;;;;;;;;;;25.70;99.90;;;;;;5106258;28;19923;-78
2022/09/07 13:19:51;;;;;;;;;;;25.50;99.90;;;;;;5096852;28;19915;-73
2022/09/07 13:22:28;;;;;;;;;;;25.40;99.90;;;;;;5105727;28;19916;-74
2022/09/07 13:24:55;;;;;;;;;;;25.50;99.90;;;;;;5085412;28;19957;-74
2022/09/07 13:27:39;;;;;;;;;;;25.50;99.90;;;;;;5104097;28;19934;-75
2022/09/07 13:30:08;;;;;;;;;;;25.50;99.90;;;;;;5103221;28;19911;-75
2022/09/07 13:32:34;;;;;;;;;;;25.40;99.90;;;;;;5093019;28;19935;-74
2022/09/07 13:34:59;;;;;;;;;;;25.10;99.90;;;;;;5087118;28;20007;-74
2022/09/07 13:37:25;;;;;;;;;;;24.80;99.90;;;;;;5088163;28;20313;-75
2022/09/07 13:39:54;;;;;;;;;;;24.80;99.90;;;;;;5105617;28;19961;-75
2022/09/07 13:42:23;;;;;;;;;;;24.70;99.90;;;;;;5099749;28;19955;-74
2022/09/07 13:44:56;;;;;;;;;;;24.60;99.90;;;;;;5080801;28;19961;-74
2022/09/07 13:47:27;;;;;;;;;;;24.60;99.90;;;;;;5102385;28;19919;-75
2022/09/07 13:50:12;;;;;;;;;;;24.70;99.90;;;;;;5107109;28;19926;-74
2022/09/07 13:53:15;;;;;;;;;;;24.70;99.90;;;;;;5112801;28;19922;-74
2022/09/07 13:56:00;;;;;;;;;;;24.60;99.90;;;;;;5030589;28;20299;-72
2022/09/07 13:58:25;;;;;;;;;;;24.50;99.90;;;;;;5030239;28;19979;-74
2022/09/07 14:01:01;;;;;;;;;;;24.40;99.90;;;;;;5026024;28;20326;-74
2022/09/07 14:03:29;;;;;;;;;;;24.10;99.90;;;;;;5028896;28;20079;-74
2022/09/07 14:06:25;;;;;;;;;;;24.00;99.90;;;;;;5001705;28;20013;-74
2022/09/07 14:09:02;;;;;;;;;;;23.80;99.90;;;;;;5020776;28;20004;-75
2022/09/07 14:11:59;;;;;;;;;;;24.00;99.90;;;;;;5015283;28;20229;-75
2022/09/07 14:14:26;;;;;;;;;;;24.20;99.90;;;;;;4961495;28;19984;-75
2022/09/07 14:16:58;;;;;;;;;;;24.30;99.90;;;;;;4993073;28;20043;-75
2022/09/07 14:19:42;;;;;;;;;;;24.40;99.90;;;;;;4992704;28;20028;-75
2022/09/07 14:22:17;;;;;;;;;;;24.50;99.90;;;;;;4993459;28;19925;-75
2022/09/07 14:24:50;;;;;;;;;;;24.80;99.90;;;;;;4990913;28;19917;-73
2022/09/07 14:27:20;;;;;;;;;;;25.00;99.90;;;;;;5025299;28;20007;-74
2022/09/07 14:29:45;;;;;;;;;;;24.90;99.90;;;;;;5034860;28;20326;-74
2022/09/07 14:32:13;;;;;;;;;;;24.80;98.90;;;;;;5048498;28;19917;-76